Terminal Aerodrome Forecast
Issued by NWS Sterling, VA

Current Version | Previous Version | Graphics & Text | Print | Product List | Glossary On
Versions: 1 2 3 4 5 6 7 8 9 10 11 12 13 14 15 16 17 18 19 20 21 22 23 24 25 26 27 28 29
000
FTUS41 KLWX 162300
TAFIAD
TAF
KIAD 162322Z 1700/1806 22004KT 2SM -DZ OVC003
     FM170200 23004KT 5SM BR OVC008
     FM170600 26005KT P6SM BKN015
     FM170800 27008KT P6SM BKN025
     FM171100 28010KT P6SM SCT045
     FM171500 29012G20KT P6SM SCT045
     FM180000 30008KT P6SM SCT250=

USA.gov is the U.S. government's official web portal to all federal, state and local government web resources and services.